Hialeah, Florida
Current Conditions -  °F | °C
As of 4:53 PM on Wednesday 28 Jan 2015 (Local Time) from KMIA Reporting Station
Few Clouds Few Clouds  
Wind Chill: 19°   Ceiling: Unl
Heat Index: 19°   Visibility: 10mi
Dew Point: -2°   Wind: 10mph
Humidity: 24%   Direction: 340°NNW
Pressure: 30.14"   Gusts: 16mph
Location:  25.86°N, 80.29°W
Report Text: KMIA 282153Z 34009G14KT 10SM FEW040 19/M02 A3014 RMK AO2 SLP205 T01941017
Loading
Personal Weather Stations






























Interactive Weather Map New forecast layout! Learn more

10-Day Weather Forecast

Advertisements
Track Severe Weather on mobile